Hughsonville, New York
Current Conditions -  °F | °C
As of 4:53 AM on Friday 24 Oct 2014 (Local Time) from KPOU Reporting Station
Overcast Overcast  
Wind Chill: 49°   Ceiling: 5500
Heat Index: 49°   Visibility: 10mi
Dew Point: 44°   Wind: 3mph
Humidity: 83%   Direction: 340°NNW
Pressure: 29.79"   Gusts: NA
Location:  41.58°N, 73.93°W
Report Text: KPOU 240853Z AUTO 34003KT 10SM FEW032 BKN055 OVC110 09/07 A2979 RMK AO2 SLP084 T00940067 55002 TSNO
Loading
Personal Weather Stations






























Interactive Weather Map
Tropical Storm Tracking
New forecast layout! Learn more

10-Day Weather Forecast

Advertisements
Track Severe Weather on mobile